sensor_id;sensor_type;location;lat;lon;timestamp;P1;durP1;ratioP1;P2;durP2;ratioP2
24873;SDS011;12945;42.648;23.370;2023-04-03T00:02:12;6.20;;;3.22;;
24873;SDS011;12945;42.648;23.370;2023-04-03T00:04:37;6.03;;;3.10;;
24873;SDS011;12945;42.648;23.370;2023-04-03T00:07:02;5.07;;;2.80;;
24873;SDS011;12945;42.648;23.370;2023-04-03T00:09:28;6.25;;;2.80;;
24873;SDS011;12945;42.648;23.370;2023-04-03T00:11:53;6.45;;;3.03;;
24873;SDS011;12945;42.648;23.370;2023-04-03T00:14:19;6.88;;;3.00;;
24873;SDS011;12945;42.648;23.370;2023-04-03T00:16:44;3.75;;;2.45;;
24873;SDS011;12945;42.648;23.370;2023-04-03T00:19:09;5.65;;;2.92;;
24873;SDS011;12945;42.648;23.370;2023-04-03T00:21:36;7.45;;;2.88;;
24873;SDS011;12945;42.648;23.370;2023-04-03T00:24:02;5.20;;;2.72;;
24873;SDS011;12945;42.648;23.370;2023-04-03T00:26:27;4.72;;;2.83;;
24873;SDS011;12945;42.648;23.370;2023-04-03T00:28:52;6.70;;;2.90;;
24873;SDS011;12945;42.648;23.370;2023-04-03T00:31:18;4.05;;;2.70;;
24873;SDS011;12945;42.648;23.370;2023-04-03T00:33:43;5.82;;;2.95;;
24873;SDS011;12945;42.648;23.370;2023-04-03T00:36:09;6.30;;;2.30;;
24873;SDS011;12945;42.648;23.370;2023-04-03T00:38:35;4.35;;;2.67;;
24873;SDS011;12945;42.648;23.370;2023-04-03T00:41:01;4.70;;;2.80;;
24873;SDS011;12945;42.648;23.370;2023-04-03T00:43:26;4.15;;;2.47;;
24873;SDS011;12945;42.648;23.370;2023-04-03T00:45:52;4.80;;;2.90;;
24873;SDS011;12945;42.648;23.370;2023-04-03T00:48:23;6.65;;;2.92;;
24873;SDS011;12945;42.648;23.370;2023-04-03T00:50:50;6.97;;;2.70;;
24873;SDS011;12945;42.648;23.370;2023-04-03T00:53:19;6.05;;;2.60;;
24873;SDS011;12945;42.648;23.370;2023-04-03T00:55:47;5.97;;;3.15;;
24873;SDS011;12945;42.648;23.370;2023-04-03T00:58:13;6.28;;;2.72;;
24873;SDS011;12945;42.648;23.370;2023-04-03T01:00:40;5.25;;;3.03;;
24873;SDS011;12945;42.648;23.370;2023-04-03T01:03:07;6.18;;;3.60;;
24873;SDS011;12945;42.648;23.370;2023-04-03T01:05:32;7.75;;;4.47;;
24873;SDS011;12945;42.648;23.370;2023-04-03T01:07:58;6.78;;;3.22;;
24873;SDS011;12945;42.648;23.370;2023-04-03T01:10:23;7.60;;;2.90;;
24873;SDS011;12945;42.648;23.370;2023-04-03T01:12:50;4.10;;;2.40;;
24873;SDS011;12945;42.648;23.370;2023-04-03T01:15:18;7.88;;;3.05;;
24873;SDS011;12945;42.648;23.370;2023-04-03T01:17:48;5.35;;;2.75;;
24873;SDS011;12945;42.648;23.370;2023-04-03T01:25:25;7.32;;;2.65;;
24873;SDS011;12945;42.648;23.370;2023-04-03T01:27:50;5.28;;;2.75;;
24873;SDS011;12945;42.648;23.370;2023-04-03T01:30:16;5.80;;;3.35;;
24873;SDS011;12945;42.648;23.370;2023-04-03T01:32:42;7.10;;;2.90;;
24873;SDS011;12945;42.648;23.370;2023-04-03T01:35:08;8.95;;;3.35;;
24873;SDS011;12945;42.648;23.370;2023-04-03T01:37:33;6.90;;;3.10;;
24873;SDS011;12945;42.648;23.370;2023-04-03T01:39:59;7.97;;;3.08;;
24873;SDS011;12945;42.648;23.370;2023-04-03T01:42:24;8.98;;;3.45;;
24873;SDS011;12945;42.648;23.370;2023-04-03T01:44:49;10.32;;;3.70;;
24873;SDS011;12945;42.648;23.370;2023-04-03T01:47:15;9.65;;;3.45;;
24873;SDS011;12945;42.648;23.370;2023-04-03T01:49:40;9.20;;;3.60;;
24873;SDS011;12945;42.648;23.370;2023-04-03T01:52:05;8.48;;;2.97;;
24873;SDS011;12945;42.648;23.370;2023-04-03T01:54:31;5.30;;;3.25;;
24873;SDS011;12945;42.648;23.370;2023-04-03T01:56:56;7.65;;;3.05;;
24873;SDS011;12945;42.648;23.370;2023-04-03T01:59:21;7.50;;;3.35;;
24873;SDS011;12945;42.648;23.370;2023-04-03T02:01:47;6.03;;;3.03;;
24873;SDS011;12945;42.648;23.370;2023-04-03T02:04:12;5.95;;;3.20;;
24873;SDS011;12945;42.648;23.370;2023-04-03T02:06:37;6.25;;;3.10;;
24873;SDS011;12945;42.648;23.370;2023-04-03T02:09:03;8.43;;;3.13;;
24873;SDS011;12945;42.648;23.370;2023-04-03T02:11:29;12.02;;;3.55;;
24873;SDS011;12945;42.648;23.370;2023-04-03T02:13:54;6.70;;;3.22;;
24873;SDS011;12945;42.648;23.370;2023-04-03T02:16:19;9.75;;;3.17;;
24873;SDS011;12945;42.648;23.370;2023-04-03T02:18:44;6.40;;;3.10;;
24873;SDS011;12945;42.648;23.370;2023-04-03T02:21:10;6.10;;;3.05;;
24873;SDS011;12945;42.648;23.370;2023-04-03T02:23:35;10.18;;;3.17;;
24873;SDS011;12945;42.648;23.370;2023-04-03T02:26:06;11.40;;;3.85;;
24873;SDS011;12945;42.648;23.370;2023-04-03T02:28:32;6.93;;;3.47;;
24873;SDS011;12945;42.648;23.370;2023-04-03T02:30:57;9.07;;;3.22;;
24873;SDS011;12945;42.648;23.370;2023-04-03T02:33:23;7.65;;;3.67;;
24873;SDS011;12945;42.648;23.370;2023-04-03T02:35:51;6.55;;;3.63;;
24873;SDS011;12945;42.648;23.370;2023-04-03T02:38:18;9.35;;;3.63;;
24873;SDS011;12945;42.648;23.370;2023-04-03T02:40:43;7.40;;;3.72;;
24873;SDS011;12945;42.648;23.370;2023-04-03T02:43:08;9.98;;;4.43;;
24873;SDS011;12945;42.648;23.370;2023-04-03T02:45:34;10.90;;;3.50;;
24873;SDS011;12945;42.648;23.370;2023-04-03T02:47:59;7.18;;;3.45;;
24873;SDS011;12945;42.648;23.370;2023-04-03T02:50:24;7.32;;;3.38;;
24873;SDS011;12945;42.648;23.370;2023-04-03T02:52:50;7.32;;;3.28;;
24873;SDS011;12945;42.648;23.370;2023-04-03T02:55:15;7.18;;;3.22;;
24873;SDS011;12945;42.648;23.370;2023-04-03T02:57:41;6.47;;;3.38;;
24873;SDS011;12945;42.648;23.370;2023-04-03T03:00:06;10.95;;;3.95;;
24873;SDS011;12945;42.648;23.370;2023-04-03T03:02:31;13.68;;;3.30;;
24873;SDS011;12945;42.648;23.370;2023-04-03T03:04:57;7.43;;;3.42;;
24873;SDS011;12945;42.648;23.370;2023-04-03T03:07:22;12.43;;;3.63;;
24873;SDS011;12945;42.648;23.370;2023-04-03T03:09:49;10.52;;;3.60;;
24873;SDS011;12945;42.648;23.370;2023-04-03T03:12:14;10.32;;;3.40;;
24873;SDS011;12945;42.648;23.370;2023-04-03T03:14:39;6.35;;;3.42;;
24873;SDS011;12945;42.648;23.370;2023-04-03T03:17:05;9.25;;;3.40;;
24873;SDS011;12945;42.648;23.370;2023-04-03T03:19:30;14.27;;;3.47;;
24873;SDS011;12945;42.648;23.370;2023-04-03T03:21:56;8.50;;;3.13;;
24873;SDS011;12945;42.648;23.370;2023-04-03T03:24:21;10.48;;;3.83;;
24873;SDS011;12945;42.648;23.370;2023-04-03T03:26:47;6.65;;;3.50;;
24873;SDS011;12945;42.648;23.370;2023-04-03T03:29:12;9.85;;;3.72;;
24873;SDS011;12945;42.648;23.370;2023-04-03T03:31:37;10.57;;;3.50;;
24873;SDS011;12945;42.648;23.370;2023-04-03T03:34:03;9.43;;;3.70;;
24873;SDS011;12945;42.648;23.370;2023-04-03T03:36:28;7.80;;;3.50;;
24873;SDS011;12945;42.648;23.370;2023-04-03T03:38:53;10.63;;;3.60;;
24873;SDS011;12945;42.648;23.370;2023-04-03T03:41:18;8.65;;;3.60;;
24873;SDS011;12945;42.648;23.370;2023-04-03T03:43:44;11.25;;;3.65;;
24873;SDS011;12945;42.648;23.370;2023-04-03T03:46:09;8.70;;;3.78;;
24873;SDS011;12945;42.648;23.370;2023-04-03T03:48:34;17.17;;;4.20;;
24873;SDS011;12945;42.648;23.370;2023-04-03T03:51:00;9.07;;;3.80;;
24873;SDS011;12945;42.648;23.370;2023-04-03T03:53:25;8.85;;;3.63;;
24873;SDS011;12945;42.648;23.370;2023-04-03T03:55:50;13.45;;;3.88;;
24873;SDS011;12945;42.648;23.370;2023-04-03T03:58:16;14.43;;;5.90;;
24873;SDS011;12945;42.648;23.370;2023-04-03T04:00:41;14.73;;;5.43;;
24873;SDS011;12945;42.648;23.370;2023-04-03T04:03:06;8.85;;;4.05;;
24873;SDS011;12945;42.648;23.370;2023-04-03T04:05:31;10.32;;;3.85;;
24873;SDS011;12945;42.648;23.370;2023-04-03T04:07:57;10.52;;;4.18;;
24873;SDS011;12945;42.648;23.370;2023-04-03T04:10:22;6.68;;;3.30;;
24873;SDS011;12945;42.648;23.370;2023-04-03T04:12:48;5.95;;;3.35;;
24873;SDS011;12945;42.648;23.370;2023-04-03T04:15:14;10.10;;;3.25;;
24873;SDS011;12945;42.648;23.370;2023-04-03T04:17:39;10.45;;;3.42;;
24873;SDS011;12945;42.648;23.370;2023-04-03T04:20:05;7.25;;;3.22;;
24873;SDS011;12945;42.648;23.370;2023-04-03T04:22:30;6.88;;;3.42;;
24873;SDS011;12945;42.648;23.370;2023-04-03T04:24:56;8.80;;;3.60;;
24873;SDS011;12945;42.648;23.370;2023-04-03T04:27:21;13.13;;;4.22;;
24873;SDS011;12945;42.648;23.370;2023-04-03T04:29:46;11.55;;;3.80;;
24873;SDS011;12945;42.648;23.370;2023-04-03T04:32:12;14.00;;;4.45;;
24873;SDS011;12945;42.648;23.370;2023-04-03T04:34:37;7.72;;;4.85;;
24873;SDS011;12945;42.648;23.370;2023-04-03T04:37:02;10.63;;;5.00;;
24873;SDS011;12945;42.648;23.370;2023-04-03T04:39:28;15.23;;;5.05;;
24873;SDS011;12945;42.648;23.370;2023-04-03T04:41:53;17.35;;;5.28;;
24873;SDS011;12945;42.648;23.370;2023-04-03T04:44:18;11.13;;;4.65;;
24873;SDS011;12945;42.648;23.370;2023-04-03T04:46:45;15.68;;;5.63;;
24873;SDS011;12945;42.648;23.370;2023-04-03T04:49:10;17.42;;;4.43;;
24873;SDS011;12945;42.648;23.370;2023-04-03T04:51:35;14.95;;;4.57;;
24873;SDS011;12945;42.648;23.370;2023-04-03T04:54:01;15.70;;;4.80;;
24873;SDS011;12945;42.648;23.370;2023-04-03T04:56:26;23.65;;;5.72;;
24873;SDS011;12945;42.648;23.370;2023-04-03T04:58:51;21.50;;;6.82;;
24873;SDS011;12945;42.648;23.370;2023-04-03T05:01:17;18.83;;;6.93;;
24873;SDS011;12945;42.648;23.370;2023-04-03T05:03:43;21.20;;;8.40;;
24873;SDS011;12945;42.648;23.370;2023-04-03T05:06:08;21.83;;;8.77;;
24873;SDS011;12945;42.648;23.370;2023-04-03T05:08:34;17.05;;;6.18;;
24873;SDS011;12945;42.648;23.370;2023-04-03T05:10:59;23.42;;;6.20;;
24873;SDS011;12945;42.648;23.370;2023-04-03T05:13:25;24.52;;;5.65;;
24873;SDS011;12945;42.648;23.370;2023-04-03T05:15:50;26.73;;;6.30;;
24873;SDS011;12945;42.648;23.370;2023-04-03T05:18:15;16.60;;;5.32;;
24873;SDS011;12945;42.648;23.370;2023-04-03T05:20:41;20.92;;;5.88;;
24873;SDS011;12945;42.648;23.370;2023-04-03T05:23:08;16.63;;;4.95;;
24873;SDS011;12945;42.648;23.370;2023-04-03T05:25:33;14.43;;;4.72;;
24873;SDS011;12945;42.648;23.370;2023-04-03T05:27:59;21.35;;;5.00;;
24873;SDS011;12945;42.648;23.370;2023-04-03T05:30:24;15.38;;;4.80;;
24873;SDS011;12945;42.648;23.370;2023-04-03T05:32:50;13.10;;;5.43;;
24873;SDS011;12945;42.648;23.370;2023-04-03T05:35:15;17.40;;;5.70;;
24873;SDS011;12945;42.648;23.370;2023-04-03T05:37:40;25.92;;;6.13;;
24873;SDS011;12945;42.648;23.370;2023-04-03T05:40:06;25.52;;;6.55;;
24873;SDS011;12945;42.648;23.370;2023-04-03T05:42:32;23.77;;;6.68;;
24873;SDS011;12945;42.648;23.370;2023-04-03T05:44:57;20.33;;;5.55;;
24873;SDS011;12945;42.648;23.370;2023-04-03T05:47:22;23.75;;;6.40;;
24873;SDS011;12945;42.648;23.370;2023-04-03T05:49:48;16.27;;;5.95;;
24873;SDS011;12945;42.648;23.370;2023-04-03T05:52:17;22.15;;;6.40;;
24873;SDS011;12945;42.648;23.370;2023-04-03T05:54:45;20.95;;;6.57;;
24873;SDS011;12945;42.648;23.370;2023-04-03T05:57:13;16.58;;;6.82;;
24873;SDS011;12945;42.648;23.370;2023-04-03T05:59:38;14.30;;;6.63;;
24873;SDS011;12945;42.648;23.370;2023-04-03T06:02:03;18.75;;;8.23;;
24873;SDS011;12945;42.648;23.370;2023-04-03T06:04:29;22.92;;;8.98;;
24873;SDS011;12945;42.648;23.370;2023-04-03T06:06:55;22.30;;;8.98;;
24873;SDS011;12945;42.648;23.370;2023-04-03T06:09:22;31.60;;;9.38;;
24873;SDS011;12945;42.648;23.370;2023-04-03T06:11:47;25.10;;;9.98;;
24873;SDS011;12945;42.648;23.370;2023-04-03T06:14:13;31.27;;;11.95;;
24873;SDS011;12945;42.648;23.370;2023-04-03T06:16:38;41.92;;;12.30;;
24873;SDS011;12945;42.648;23.370;2023-04-03T06:19:04;37.40;;;12.55;;
24873;SDS011;12945;42.648;23.370;2023-04-03T06:21:30;33.65;;;11.93;;
24873;SDS011;12945;42.648;23.370;2023-04-03T06:23:56;21.95;;;10.00;;
24873;SDS011;12945;42.648;23.370;2023-04-03T06:26:21;24.90;;;10.57;;
24873;SDS011;12945;42.648;23.370;2023-04-03T06:28:47;24.45;;;10.55;;
24873;SDS011;12945;42.648;23.370;2023-04-03T06:31:12;23.80;;;10.50;;
24873;SDS011;12945;42.648;23.370;2023-04-03T06:33:38;24.90;;;9.45;;
24873;SDS011;12945;42.648;23.370;2023-04-03T06:36:04;21.55;;;9.20;;
24873;SDS011;12945;42.648;23.370;2023-04-03T06:38:29;23.25;;;8.30;;
24873;SDS011;12945;42.648;23.370;2023-04-03T06:40:54;19.23;;;8.10;;
24873;SDS011;12945;42.648;23.370;2023-04-03T06:43:21;23.77;;;6.95;;
24873;SDS011;12945;42.648;23.370;2023-04-03T06:45:46;24.88;;;6.68;;
24873;SDS011;12945;42.648;23.370;2023-04-03T06:48:12;22.88;;;5.93;;
24873;SDS011;12945;42.648;23.370;2023-04-03T06:50:37;18.33;;;6.22;;
24873;SDS011;12945;42.648;23.370;2023-04-03T06:53:03;15.85;;;6.45;;
24873;SDS011;12945;42.648;23.370;2023-04-03T06:55:28;27.42;;;7.45;;
24873;SDS011;12945;42.648;23.370;2023-04-03T06:57:54;12.27;;;5.47;;
24873;SDS011;12945;42.648;23.370;2023-04-03T07:00:20;23.05;;;6.88;;
24873;SDS011;12945;42.648;23.370;2023-04-03T07:02:46;19.55;;;6.97;;
24873;SDS011;12945;42.648;23.370;2023-04-03T07:05:11;20.25;;;7.38;;
24873;SDS011;12945;42.648;23.370;2023-04-03T07:07:36;25.35;;;8.02;;
24873;SDS011;12945;42.648;23.370;2023-04-03T07:10:03;22.83;;;7.88;;
24873;SDS011;12945;42.648;23.370;2023-04-03T07:12:28;16.20;;;7.93;;
24873;SDS011;12945;42.648;23.370;2023-04-03T07:14:53;19.70;;;8.38;;
24873;SDS011;12945;42.648;23.370;2023-04-03T07:17:19;25.08;;;9.13;;
24873;SDS011;12945;42.648;23.370;2023-04-03T07:19:44;25.75;;;8.90;;
24873;SDS011;12945;42.648;23.370;2023-04-03T07:22:09;21.00;;;9.38;;
24873;SDS011;12945;42.648;23.370;2023-04-03T07:24:36;25.88;;;10.02;;
24873;SDS011;12945;42.648;23.370;2023-04-03T07:27:01;22.90;;;11.27;;
24873;SDS011;12945;42.648;23.370;2023-04-03T07:29:27;23.95;;;12.65;;
24873;SDS011;12945;42.648;23.370;2023-04-03T07:31:53;30.08;;;12.30;;
24873;SDS011;12945;42.648;23.370;2023-04-03T07:34:18;32.65;;;13.02;;
24873;SDS011;12945;42.648;23.370;2023-04-03T07:36:43;34.08;;;11.95;;
24873;SDS011;12945;42.648;23.370;2023-04-03T07:39:09;39.22;;;12.70;;
24873;SDS011;12945;42.648;23.370;2023-04-03T07:41:34;24.85;;;13.55;;
24873;SDS011;12945;42.648;23.370;2023-04-03T07:43:59;46.72;;;12.20;;
24873;SDS011;12945;42.648;23.370;2023-04-03T07:46:25;33.88;;;12.38;;
24873;SDS011;12945;42.648;23.370;2023-04-03T07:48:51;36.15;;;12.75;;
24873;SDS011;12945;42.648;23.370;2023-04-03T07:51:16;30.17;;;13.05;;
24873;SDS011;12945;42.648;23.370;2023-04-03T07:53:41;41.38;;;14.52;;
24873;SDS011;12945;42.648;23.370;2023-04-03T07:56:07;33.00;;;14.98;;
24873;SDS011;12945;42.648;23.370;2023-04-03T07:58:32;35.72;;;14.55;;
24873;SDS011;12945;42.648;23.370;2023-04-03T08:00:58;35.35;;;15.63;;
24873;SDS011;12945;42.648;23.370;2023-04-03T08:03:23;45.20;;;17.23;;
24873;SDS011;12945;42.648;23.370;2023-04-03T08:05:49;42.45;;;18.20;;
24873;SDS011;12945;42.648;23.370;2023-04-03T08:08:16;46.88;;;19.92;;
24873;SDS011;12945;42.648;23.370;2023-04-03T08:10:42;62.10;;;18.80;;
24873;SDS011;12945;42.648;23.370;2023-04-03T08:13:07;37.60;;;19.10;;
24873;SDS011;12945;42.648;23.370;2023-04-03T08:15:33;37.92;;;18.08;;
24873;SDS011;12945;42.648;23.370;2023-04-03T08:17:59;41.53;;;18.00;;
24873;SDS011;12945;42.648;23.370;2023-04-03T08:20:24;42.10;;;18.80;;
24873;SDS011;12945;42.648;23.370;2023-04-03T08:22:50;35.17;;;17.70;;
24873;SDS011;12945;42.648;23.370;2023-04-03T08:25:15;44.35;;;17.05;;
24873;SDS011;12945;42.648;23.370;2023-04-03T08:27:42;43.17;;;17.95;;
24873;SDS011;12945;42.648;23.370;2023-04-03T08:30:07;38.40;;;17.52;;
24873;SDS011;12945;42.648;23.370;2023-04-03T08:32:33;35.80;;;15.90;;
24873;SDS011;12945;42.648;23.370;2023-04-03T08:35:00;39.10;;;17.02;;
24873;SDS011;12945;42.648;23.370;2023-04-03T08:37:25;32.95;;;16.00;;
24873;SDS011;12945;42.648;23.370;2023-04-03T08:39:51;36.75;;;17.13;;
24873;SDS011;12945;42.648;23.370;2023-04-03T08:42:29;42.75;;;16.50;;
24873;SDS011;12945;42.648;23.370;2023-04-03T08:47:29;44.53;;;17.02;;
24873;SDS011;12945;42.648;23.370;2023-04-03T08:50:01;51.72;;;17.02;;
24873;SDS011;12945;42.648;23.370;2023-04-03T08:52:42;34.65;;;15.85;;
24873;SDS011;12945;42.648;23.370;2023-04-03T08:55:17;32.08;;;15.88;;
24873;SDS011;12945;42.648;23.370;2023-04-03T08:57:44;33.38;;;14.75;;
24873;SDS011;12945;42.648;23.370;2023-04-03T09:10:43;31.08;;;15.15;;
24873;SDS011;12945;42.648;23.370;2023-04-03T09:13:30;25.92;;;13.25;;
24873;SDS011;12945;42.648;23.370;2023-04-03T09:15:54;23.83;;;11.52;;
24873;SDS011;12945;42.648;23.370;2023-04-03T09:18:21;21.40;;;9.65;;
24873;SDS011;12945;42.648;23.370;2023-04-03T09:23:22;25.58;;;10.57;;
24873;SDS011;12945;42.648;23.370;2023-04-03T09:25:48;19.17;;;11.07;;
24873;SDS011;12945;42.648;23.370;2023-04-03T09:28:15;27.15;;;11.45;;
24873;SDS011;12945;42.648;23.370;2023-04-03T09:30:43;15.77;;;10.32;;
24873;SDS011;12945;42.648;23.370;2023-04-03T09:33:09;18.52;;;9.50;;
24873;SDS011;12945;42.648;23.370;2023-04-03T09:35:36;23.77;;;9.52;;
24873;SDS011;12945;42.648;23.370;2023-04-03T09:40:43;24.08;;;8.45;;
24873;SDS011;12945;42.648;23.370;2023-04-03T09:45:41;13.68;;;6.63;;
24873;SDS011;12945;42.648;23.370;2023-04-03T09:48:15;16.85;;;5.05;;
24873;SDS011;12945;42.648;23.370;2023-04-03T09:53:29;4.85;;;3.20;;
24873;SDS011;12945;42.648;23.370;2023-04-03T09:55:55;9.55;;;3.47;;
24873;SDS011;12945;42.648;23.370;2023-04-03T09:58:24;8.63;;;3.53;;
24873;SDS011;12945;42.648;23.370;2023-04-03T10:00:54;11.40;;;3.65;;
24873;SDS011;12945;42.648;23.370;2023-04-03T10:03:24;6.47;;;3.42;;
24873;SDS011;12945;42.648;23.370;2023-04-03T10:08:23;8.60;;;4.30;;
24873;SDS011;12945;42.648;23.370;2023-04-03T10:11:04;12.88;;;5.40;;
24873;SDS011;12945;42.648;23.370;2023-04-03T10:13:30;10.05;;;4.82;;
24873;SDS011;12945;42.648;23.370;2023-04-03T10:15:56;8.93;;;4.53;;
24873;SDS011;12945;42.648;23.370;2023-04-03T10:18:34;8.90;;;4.50;;
24873;SDS011;12945;42.648;23.370;2023-04-03T10:21:12;10.63;;;4.75;;
24873;SDS011;12945;42.648;23.370;2023-04-03T10:23:44;14.02;;;4.60;;
24873;SDS011;12945;42.648;23.370;2023-04-03T10:26:32;8.35;;;4.38;;
24873;SDS011;12945;42.648;23.370;2023-04-03T10:29:02;9.85;;;4.68;;
24873;SDS011;12945;42.648;23.370;2023-04-03T10:34:50;10.55;;;4.50;;
24873;SDS011;12945;42.648;23.370;2023-04-03T10:45:19;10.13;;;2.90;;
24873;SDS011;12945;42.648;23.370;2023-04-03T10:47:55;5.22;;;3.40;;
24873;SDS011;12945;42.648;23.370;2023-04-03T10:50:29;5.97;;;3.03;;
24873;SDS011;12945;42.648;23.370;2023-04-03T10:55:24;6.18;;;2.90;;
24873;SDS011;12945;42.648;23.370;2023-04-03T10:57:56;6.35;;;2.83;;
24873;SDS011;12945;42.648;23.370;2023-04-03T11:00:39;8.68;;;2.65;;
24873;SDS011;12945;42.648;23.370;2023-04-03T11:03:08;8.70;;;3.30;;
24873;SDS011;12945;42.648;23.370;2023-04-03T11:05:45;8.35;;;2.90;;
24873;SDS011;12945;42.648;23.370;2023-04-03T11:08:35;4.72;;;2.55;;
24873;SDS011;12945;42.648;23.370;2023-04-03T11:11:20;3.40;;;2.40;;
24873;SDS011;12945;42.648;23.370;2023-04-03T11:14:27;7.40;;;2.80;;
24873;SDS011;12945;42.648;23.370;2023-04-03T11:16:34;4.85;;;2.92;;
24873;SDS011;12945;42.648;23.370;2023-04-03T11:19:03;6.22;;;3.38;;
24873;SDS011;12945;42.648;23.370;2023-04-03T11:21:33;5.95;;;3.53;;
24873;SDS011;12945;42.648;23.370;2023-04-03T11:24:00;7.80;;;4.00;;
24873;SDS011;12945;42.648;23.370;2023-04-03T11:26:29;6.57;;;4.38;;
24873;SDS011;12945;42.648;23.370;2023-04-03T11:29:01;12.63;;;4.20;;
24873;SDS011;12945;42.648;23.370;2023-04-03T11:34:21;5.15;;;3.38;;
24873;SDS011;12945;42.648;23.370;2023-04-03T11:36:50;9.27;;;4.30;;
24873;SDS011;12945;42.648;23.370;2023-04-03T11:39:25;6.97;;;3.83;;
24873;SDS011;12945;42.648;23.370;2023-04-03T11:41:51;5.25;;;3.40;;
24873;SDS011;12945;42.648;23.370;2023-04-03T11:44:36;5.35;;;3.38;;
24873;SDS011;12945;42.648;23.370;2023-04-03T11:47:03;4.78;;;3.38;;
24873;SDS011;12945;42.648;23.370;2023-04-03T11:52:13;6.88;;;3.53;;
24873;SDS011;12945;42.648;23.370;2023-04-03T11:54:58;6.80;;;4.05;;
24873;SDS011;12945;42.648;23.370;2023-04-03T12:02:52;5.63;;;3.58;;
24873;SDS011;12945;42.648;23.370;2023-04-03T12:05:25;6.68;;;3.95;;
24873;SDS011;12945;42.648;23.370;2023-04-03T12:08:15;5.03;;;3.92;;
24873;SDS011;12945;42.648;23.370;2023-04-03T12:10:38;6.70;;;4.03;;
24873;SDS011;12945;42.648;23.370;2023-04-03T12:13:12;9.48;;;3.92;;
24873;SDS011;12945;42.648;23.370;2023-04-03T12:18:31;9.88;;;4.25;;
24873;SDS011;12945;42.648;23.370;2023-04-03T12:20:57;9.45;;;4.72;;
24873;SDS011;12945;42.648;23.370;2023-04-03T12:23:27;5.53;;;3.80;;
24873;SDS011;12945;42.648;23.370;2023-04-03T12:25:59;6.30;;;4.00;;
24873;SDS011;12945;42.648;23.370;2023-04-03T12:28:24;6.90;;;4.60;;
24873;SDS011;12945;42.648;23.370;2023-04-03T12:30:50;8.80;;;4.13;;
24873;SDS011;12945;42.648;23.370;2023-04-03T12:33:36;6.47;;;4.53;;
24873;SDS011;12945;42.648;23.370;2023-04-03T12:36:11;9.13;;;4.03;;
24873;SDS011;12945;42.648;23.370;2023-04-03T12:48:34;8.07;;;5.10;;
24873;SDS011;12945;42.648;23.370;2023-04-03T12:51:02;7.50;;;4.32;;
24873;SDS011;12945;42.648;23.370;2023-04-03T12:53:28;10.15;;;4.75;;
24873;SDS011;12945;42.648;23.370;2023-04-03T12:55:56;8.00;;;4.38;;
24873;SDS011;12945;42.648;23.370;2023-04-03T12:58:25;7.22;;;4.90;;
24873;SDS011;12945;42.648;23.370;2023-04-03T13:01:01;11.15;;;4.93;;
24873;SDS011;12945;42.648;23.370;2023-04-03T13:03:28;8.00;;;4.93;;
24873;SDS011;12945;42.648;23.370;2023-04-03T13:05:55;7.70;;;4.50;;
24873;SDS011;12945;42.648;23.370;2023-04-03T13:08:22;10.57;;;4.15;;
24873;SDS011;12945;42.648;23.370;2023-04-03T13:10:50;10.52;;;4.63;;
24873;SDS011;12945;42.648;23.370;2023-04-03T13:13:16;7.78;;;4.93;;
24873;SDS011;12945;42.648;23.370;2023-04-03T13:15:47;7.93;;;4.80;;
24873;SDS011;12945;42.648;23.370;2023-04-03T13:20:50;9.32;;;4.95;;
24873;SDS011;12945;42.648;23.370;2023-04-03T13:23:16;6.68;;;4.82;;
24873;SDS011;12945;42.648;23.370;2023-04-03T13:25:43;8.98;;;5.50;;
24873;SDS011;12945;42.648;23.370;2023-04-03T13:28:10;10.23;;;5.13;;
24873;SDS011;12945;42.648;23.370;2023-04-03T13:30:38;8.35;;;5.95;;
24873;SDS011;12945;42.648;23.370;2023-04-03T13:33:05;10.18;;;6.03;;
24873;SDS011;12945;42.648;23.370;2023-04-03T13:35:38;9.70;;;6.28;;
24873;SDS011;12945;42.648;23.370;2023-04-03T13:38:26;9.52;;;6.20;;
24873;SDS011;12945;42.648;23.370;2023-04-03T13:40:57;8.10;;;6.05;;
24873;SDS011;12945;42.648;23.370;2023-04-03T13:43:24;9.88;;;6.55;;
24873;SDS011;12945;42.648;23.370;2023-04-03T13:45:58;11.80;;;6.35;;
24873;SDS011;12945;42.648;23.370;2023-04-03T13:48:23;9.68;;;6.55;;
24873;SDS011;12945;42.648;23.370;2023-04-03T13:53:34;14.20;;;7.05;;
24873;SDS011;12945;42.648;23.370;2023-04-03T13:56:07;8.30;;;6.85;;
24873;SDS011;12945;42.648;23.370;2023-04-03T13:58:34;11.05;;;6.97;;
24873;SDS011;12945;42.648;23.370;2023-04-03T14:03:36;7.38;;;6.10;;
24873;SDS011;12945;42.648;23.370;2023-04-03T14:06:04;10.93;;;6.80;;
24873;SDS011;12945;42.648;23.370;2023-04-03T14:08:30;12.32;;;8.85;;
24873;SDS011;12945;42.648;23.370;2023-04-03T14:10:55;11.07;;;7.28;;
24873;SDS011;12945;42.648;23.370;2023-04-03T14:13:20;10.20;;;6.75;;
24873;SDS011;12945;42.648;23.370;2023-04-03T14:15:47;14.35;;;7.30;;
24873;SDS011;12945;42.648;23.370;2023-04-03T14:18:14;15.65;;;7.78;;
24873;SDS011;12945;42.648;23.370;2023-04-03T14:20:40;10.52;;;7.28;;
24873;SDS011;12945;42.648;23.370;2023-04-03T14:23:06;11.95;;;7.43;;
24873;SDS011;12945;42.648;23.370;2023-04-03T14:25:32;12.88;;;7.90;;
24873;SDS011;12945;42.648;23.370;2023-04-03T14:27:57;11.23;;;7.68;;
24873;SDS011;12945;42.648;23.370;2023-04-03T14:30:29;14.98;;;7.53;;
24873;SDS011;12945;42.648;23.370;2023-04-03T14:32:56;13.13;;;7.35;;
24873;SDS011;12945;42.648;23.370;2023-04-03T14:35:21;11.45;;;7.47;;
24873;SDS011;12945;42.648;23.370;2023-04-03T14:37:47;11.60;;;7.22;;
24873;SDS011;12945;42.648;23.370;2023-04-03T14:40:14;11.40;;;7.55;;
24873;SDS011;12945;42.648;23.370;2023-04-03T14:42:40;11.25;;;7.10;;
24873;SDS011;12945;42.648;23.370;2023-04-03T14:45:07;10.32;;;6.82;;
24873;SDS011;12945;42.648;23.370;2023-04-03T14:47:33;9.00;;;6.72;;
24873;SDS011;12945;42.648;23.370;2023-04-03T14:50:03;9.13;;;6.38;;
24873;SDS011;12945;42.648;23.370;2023-04-03T14:52:33;8.45;;;6.03;;
24873;SDS011;12945;42.648;23.370;2023-04-03T14:54:59;9.13;;;6.53;;
24873;SDS011;12945;42.648;23.370;2023-04-03T14:57:25;9.75;;;6.03;;
24873;SDS011;12945;42.648;23.370;2023-04-03T14:59:51;9.57;;;6.70;;
24873;SDS011;12945;42.648;23.370;2023-04-03T15:02:30;11.93;;;6.43;;
24873;SDS011;12945;42.648;23.370;2023-04-03T15:04:56;9.23;;;6.75;;
24873;SDS011;12945;42.648;23.370;2023-04-03T15:07:22;11.65;;;6.57;;
24873;SDS011;12945;42.648;23.370;2023-04-03T15:09:49;9.13;;;6.45;;
24873;SDS011;12945;42.648;23.370;2023-04-03T15:12:14;8.63;;;6.03;;
24873;SDS011;12945;42.648;23.370;2023-04-03T15:14:39;9.90;;;6.10;;
24873;SDS011;12945;42.648;23.370;2023-04-03T15:17:05;8.27;;;5.68;;
24873;SDS011;12945;42.648;23.370;2023-04-03T15:19:35;10.65;;;6.72;;
24873;SDS011;12945;42.648;23.370;2023-04-03T15:22:01;8.63;;;6.15;;
24873;SDS011;12945;42.648;23.370;2023-04-03T15:24:27;9.18;;;5.97;;
24873;SDS011;12945;42.648;23.370;2023-04-03T15:26:52;8.82;;;5.35;;
24873;SDS011;12945;42.648;23.370;2023-04-03T15:29:17;10.02;;;5.82;;
24873;SDS011;12945;42.648;23.370;2023-04-03T15:31:43;7.20;;;5.50;;
24873;SDS011;12945;42.648;23.370;2023-04-03T15:34:08;7.72;;;5.20;;
24873;SDS011;12945;42.648;23.370;2023-04-03T15:36:33;8.52;;;5.88;;
24873;SDS011;12945;42.648;23.370;2023-04-03T15:38:59;8.15;;;5.53;;
24873;SDS011;12945;42.648;23.370;2023-04-03T15:41:25;7.97;;;5.57;;
24873;SDS011;12945;42.648;23.370;2023-04-03T15:43:50;7.25;;;5.40;;